sensor_id;sensor_type;location;lat;lon;timestamp;temperature;humidity
51733;DHT22;39139;53.144;6.244;2023-05-07T00:01:43;13.00;99.90
51733;DHT22;39139;53.144;6.244;2023-05-07T00:04:08;12.90;99.90
51733;DHT22;39139;53.144;6.244;2023-05-07T00:06:34;12.90;99.90
51733;DHT22;39139;53.144;6.244;2023-05-07T00:09:00;12.90;99.90
51733;DHT22;39139;53.144;6.244;2023-05-07T00:11:27;12.90;99.90
51733;DHT22;39139;53.144;6.244;2023-05-07T00:13:52;12.80;99.90
51733;DHT22;39139;53.144;6.244;2023-05-07T00:16:18;12.80;99.90
51733;DHT22;39139;53.144;6.244;2023-05-07T00:18:44;12.80;99.90
51733;DHT22;39139;53.144;6.244;2023-05-07T00:21:10;12.80;99.90
51733;DHT22;39139;53.144;6.244;2023-05-07T00:23:36;12.80;99.90
51733;DHT22;39139;53.144;6.244;2023-05-07T00:26:02;12.80;99.90
51733;DHT22;39139;53.144;6.244;2023-05-07T00:28:28;12.80;99.90
51733;DHT22;39139;53.144;6.244;2023-05-07T00:30:53;12.80;99.90
51733;DHT22;39139;53.144;6.244;2023-05-07T00:33:19;12.80;99.90
51733;DHT22;39139;53.144;6.244;2023-05-07T00:35:46;12.80;99.90
51733;DHT22;39139;53.144;6.244;2023-05-07T00:38:12;12.80;99.90
51733;DHT22;39139;53.144;6.244;2023-05-07T00:40:37;12.80;99.90
51733;DHT22;39139;53.144;6.244;2023-05-07T00:43:03;12.70;99.90
51733;DHT22;39139;53.144;6.244;2023-05-07T00:45:29;12.80;99.90
51733;DHT22;39139;53.144;6.244;2023-05-07T00:47:59;12.70;99.90
51733;DHT22;39139;53.144;6.244;2023-05-07T00:50:26;12.60;99.90
51733;DHT22;39139;53.144;6.244;2023-05-07T00:52:53;12.60;99.90
51733;DHT22;39139;53.144;6.244;2023-05-07T00:55:19;12.60;99.90
51733;DHT22;39139;53.144;6.244;2023-05-07T00:57:45;12.60;99.90
51733;DHT22;39139;53.144;6.244;2023-05-07T01:00:12;12.60;99.90
51733;DHT22;39139;53.144;6.244;2023-05-07T01:02:41;12.60;99.90
51733;DHT22;39139;53.144;6.244;2023-05-07T01:05:14;12.60;99.90
51733;DHT22;39139;53.144;6.244;2023-05-07T01:07:42;12.60;99.90
51733;DHT22;39139;53.144;6.244;2023-05-07T01:10:08;12.50;99.90
51733;DHT22;39139;53.144;6.244;2023-05-07T01:12:36;12.50;99.90
51733;DHT22;39139;53.144;6.244;2023-05-07T01:15:03;12.50;99.90
51733;DHT22;39139;53.144;6.244;2023-05-07T01:17:32;12.50;99.90
51733;DHT22;39139;53.144;6.244;2023-05-07T01:19:58;12.50;99.90
51733;DHT22;39139;53.144;6.244;2023-05-07T01:22:32;12.40;99.90
51733;DHT22;39139;53.144;6.244;2023-05-07T01:24:58;12.40;99.90
51733;DHT22;39139;53.144;6.244;2023-05-07T01:27:25;12.40;99.90
51733;DHT22;39139;53.144;6.244;2023-05-07T01:29:51;12.30;99.90
51733;DHT22;39139;53.144;6.244;2023-05-07T01:32:20;12.30;99.90
51733;DHT22;39139;53.144;6.244;2023-05-07T01:34:48;12.30;99.90
51733;DHT22;39139;53.144;6.244;2023-05-07T01:37:14;12.30;99.90
51733;DHT22;39139;53.144;6.244;2023-05-07T01:39:42;12.20;99.90
51733;DHT22;39139;53.144;6.244;2023-05-07T01:42:08;12.20;99.90
51733;DHT22;39139;53.144;6.244;2023-05-07T01:44:34;12.20;99.90
51733;DHT22;39139;53.144;6.244;2023-05-07T01:47:01;12.20;99.90
51733;DHT22;39139;53.144;6.244;2023-05-07T01:49:27;12.20;99.90
51733;DHT22;39139;53.144;6.244;2023-05-07T01:51:53;12.20;99.90
51733;DHT22;39139;53.144;6.244;2023-05-07T01:54:19;12.00;99.90
51733;DHT22;39139;53.144;6.244;2023-05-07T01:56:45;12.00;99.90
51733;DHT22;39139;53.144;6.244;2023-05-07T01:59:13;12.00;99.90
51733;DHT22;39139;53.144;6.244;2023-05-07T02:01:39;12.00;99.90
51733;DHT22;39139;53.144;6.244;2023-05-07T02:04:04;12.00;99.90
51733;DHT22;39139;53.144;6.244;2023-05-07T02:06:30;11.90;99.90
51733;DHT22;39139;53.144;6.244;2023-05-07T02:08:56;12.10;99.90
51733;DHT22;39139;53.144;6.244;2023-05-07T02:11:22;11.90;99.90
51733;DHT22;39139;53.144;6.244;2023-05-07T02:13:47;11.90;99.90
51733;DHT22;39139;53.144;6.244;2023-05-07T02:16:13;11.90;99.90
51733;DHT22;39139;53.144;6.244;2023-05-07T02:18:39;11.80;99.90
51733;DHT22;39139;53.144;6.244;2023-05-07T02:21:05;11.80;99.90
51733;DHT22;39139;53.144;6.244;2023-05-07T02:23:31;11.80;99.90
51733;DHT22;39139;53.144;6.244;2023-05-07T02:25:56;11.80;99.90
51733;DHT22;39139;53.144;6.244;2023-05-07T02:28:22;11.60;99.90
51733;DHT22;39139;53.144;6.244;2023-05-07T02:30:48;11.80;99.90
51733;DHT22;39139;53.144;6.244;2023-05-07T02:33:13;11.70;99.90
51733;DHT22;39139;53.144;6.244;2023-05-07T02:35:39;11.70;99.90
51733;DHT22;39139;53.144;6.244;2023-05-07T02:38:05;11.70;99.90
51733;DHT22;39139;53.144;6.244;2023-05-07T02:40:30;11.50;99.90
51733;DHT22;39139;53.144;6.244;2023-05-07T02:42:59;11.60;99.90
51733;DHT22;39139;53.144;6.244;2023-05-07T02:45:25;11.60;99.90
51733;DHT22;39139;53.144;6.244;2023-05-07T02:47:50;11.60;99.90
51733;DHT22;39139;53.144;6.244;2023-05-07T02:50:16;11.50;99.90
51733;DHT22;39139;53.144;6.244;2023-05-07T02:52:42;11.60;99.90
51733;DHT22;39139;53.144;6.244;2023-05-07T02:55:08;11.50;99.90
51733;DHT22;39139;53.144;6.244;2023-05-07T02:57:33;11.60;99.90
51733;DHT22;39139;53.144;6.244;2023-05-07T02:59:59;11.50;99.90
51733;DHT22;39139;53.144;6.244;2023-05-07T03:02:25;11.50;99.90
51733;DHT22;39139;53.144;6.244;2023-05-07T03:04:51;12.30;99.90
51733;DHT22;39139;53.144;6.244;2023-05-07T03:07:17;11.40;99.90
51733;DHT22;39139;53.144;6.244;2023-05-07T03:09:42;11.40;99.90
51733;DHT22;39139;53.144;6.244;2023-05-07T03:12:08;11.50;99.90
51733;DHT22;39139;53.144;6.244;2023-05-07T03:14:34;11.30;99.90
51733;DHT22;39139;53.144;6.244;2023-05-07T03:16:59;11.30;99.90
51733;DHT22;39139;53.144;6.244;2023-05-07T03:19:25;11.40;99.90
51733;DHT22;39139;53.144;6.244;2023-05-07T03:21:51;11.30;99.90
51733;DHT22;39139;53.144;6.244;2023-05-07T03:24:16;11.30;99.90
51733;DHT22;39139;53.144;6.244;2023-05-07T03:26:42;11.30;99.90
51733;DHT22;39139;53.144;6.244;2023-05-07T03:29:07;11.30;99.90
51733;DHT22;39139;53.144;6.244;2023-05-07T03:31:33;11.30;99.90
51733;DHT22;39139;53.144;6.244;2023-05-07T03:33:59;11.20;99.90
51733;DHT22;39139;53.144;6.244;2023-05-07T03:36:24;11.30;99.90
51733;DHT22;39139;53.144;6.244;2023-05-07T03:38:52;11.20;99.90
51733;DHT22;39139;53.144;6.244;2023-05-07T03:41:17;11.30;99.90
51733;DHT22;39139;53.144;6.244;2023-05-07T03:43:43;11.20;99.90
51733;DHT22;39139;53.144;6.244;2023-05-07T03:46:08;11.20;99.90
51733;DHT22;39139;53.144;6.244;2023-05-07T03:48:34;11.20;99.90
51733;DHT22;39139;53.144;6.244;2023-05-07T03:51:00;11.30;99.90
51733;DHT22;39139;53.144;6.244;2023-05-07T03:53:26;11.20;99.90
51733;DHT22;39139;53.144;6.244;2023-05-07T03:55:51;11.10;99.90
51733;DHT22;39139;53.144;6.244;2023-05-07T03:58:18;11.20;99.90
51733;DHT22;39139;53.144;6.244;2023-05-07T04:00:44;11.20;99.90
51733;DHT22;39139;53.144;6.244;2023-05-07T04:03:10;11.20;99.90
51733;DHT22;39139;53.144;6.244;2023-05-07T04:05:35;11.20;99.90
51733;DHT22;39139;53.144;6.244;2023-05-07T04:08:01;11.20;99.90
51733;DHT22;39139;53.144;6.244;2023-05-07T04:10:30;11.20;99.90
51733;DHT22;39139;53.144;6.244;2023-05-07T04:12:55;11.20;99.90
51733;DHT22;39139;53.144;6.244;2023-05-07T04:15:22;11.20;99.90
51733;DHT22;39139;53.144;6.244;2023-05-07T04:17:48;11.10;99.90
51733;DHT22;39139;53.144;6.244;2023-05-07T04:20:15;11.10;99.90
51733;DHT22;39139;53.144;6.244;2023-05-07T04:22:41;11.10;99.90
51733;DHT22;39139;53.144;6.244;2023-05-07T04:25:08;11.10;99.90
51733;DHT22;39139;53.144;6.244;2023-05-07T04:27:36;11.10;99.90
51733;DHT22;39139;53.144;6.244;2023-05-07T04:30:03;11.10;99.90
51733;DHT22;39139;53.144;6.244;2023-05-07T04:32:29;11.10;99.90
51733;DHT22;39139;53.144;6.244;2023-05-07T04:34:56;11.10;99.90
51733;DHT22;39139;53.144;6.244;2023-05-07T04:37:22;11.10;99.90
51733;DHT22;39139;53.144;6.244;2023-05-07T04:39:48;11.10;99.90
51733;DHT22;39139;53.144;6.244;2023-05-07T04:42:17;11.10;99.90
51733;DHT22;39139;53.144;6.244;2023-05-07T04:44:44;11.10;99.90
51733;DHT22;39139;53.144;6.244;2023-05-07T04:47:09;11.10;99.90
51733;DHT22;39139;53.144;6.244;2023-05-07T04:49:36;11.10;99.90
51733;DHT22;39139;53.144;6.244;2023-05-07T04:52:01;11.10;99.90
51733;DHT22;39139;53.144;6.244;2023-05-07T04:54:28;11.00;99.90
51733;DHT22;39139;53.144;6.244;2023-05-07T04:56:54;11.00;99.90
51733;DHT22;39139;53.144;6.244;2023-05-07T04:59:19;11.00;99.90
51733;DHT22;39139;53.144;6.244;2023-05-07T05:01:45;11.00;99.90
51733;DHT22;39139;53.144;6.244;2023-05-07T05:04:11;11.10;99.90
51733;DHT22;39139;53.144;6.244;2023-05-07T05:06:36;10.90;99.90
51733;DHT22;39139;53.144;6.244;2023-05-07T05:09:02;11.00;99.90
51733;DHT22;39139;53.144;6.244;2023-05-07T05:11:29;11.00;99.90
51733;DHT22;39139;53.144;6.244;2023-05-07T05:13:55;10.80;99.90
51733;DHT22;39139;53.144;6.244;2023-05-07T05:16:21;10.90;99.90
51733;DHT22;39139;53.144;6.244;2023-05-07T05:18:46;11.00;99.90
51733;DHT22;39139;53.144;6.244;2023-05-07T05:21:12;10.90;99.90
51733;DHT22;39139;53.144;6.244;2023-05-07T05:23:37;10.90;99.90
51733;DHT22;39139;53.144;6.244;2023-05-07T05:26:04;10.80;99.90
51733;DHT22;39139;53.144;6.244;2023-05-07T05:28:30;10.90;99.90
51733;DHT22;39139;53.144;6.244;2023-05-07T05:30:55;10.90;99.90
51733;DHT22;39139;53.144;6.244;2023-05-07T05:33:21;10.90;99.90
51733;DHT22;39139;53.144;6.244;2023-05-07T05:35:46;10.90;99.90
51733;DHT22;39139;53.144;6.244;2023-05-07T05:38:12;11.00;99.90
51733;DHT22;39139;53.144;6.244;2023-05-07T05:40:38;11.00;99.90
51733;DHT22;39139;53.144;6.244;2023-05-07T05:43:04;11.00;99.90
51733;DHT22;39139;53.144;6.244;2023-05-07T05:45:29;11.20;99.90
51733;DHT22;39139;53.144;6.244;2023-05-07T05:47:56;11.10;99.90
51733;DHT22;39139;53.144;6.244;2023-05-07T05:50:22;11.10;99.90
51733;DHT22;39139;53.144;6.244;2023-05-07T05:52:47;11.10;99.90
51733;DHT22;39139;53.144;6.244;2023-05-07T05:55:13;11.10;99.90
51733;DHT22;39139;53.144;6.244;2023-05-07T05:57:39;11.10;99.90
51733;DHT22;39139;53.144;6.244;2023-05-07T06:00:06;11.10;99.90
51733;DHT22;39139;53.144;6.244;2023-05-07T06:02:32;11.10;99.90
51733;DHT22;39139;53.144;6.244;2023-05-07T06:04:57;11.20;99.90
51733;DHT22;39139;53.144;6.244;2023-05-07T06:07:23;11.20;99.90
51733;DHT22;39139;53.144;6.244;2023-05-07T06:09:48;11.40;99.90
51733;DHT22;39139;53.144;6.244;2023-05-07T06:12:14;11.20;99.90
51733;DHT22;39139;53.144;6.244;2023-05-07T06:14:40;11.30;99.90
51733;DHT22;39139;53.144;6.244;2023-05-07T06:17:07;11.30;99.90
51733;DHT22;39139;53.144;6.244;2023-05-07T06:19:33;11.20;99.90
51733;DHT22;39139;53.144;6.244;2023-05-07T06:21:59;11.30;99.90
51733;DHT22;39139;53.144;6.244;2023-05-07T06:24:26;11.30;99.90
51733;DHT22;39139;53.144;6.244;2023-05-07T06:26:52;11.30;99.90
51733;DHT22;39139;53.144;6.244;2023-05-07T06:29:18;11.40;99.90
51733;DHT22;39139;53.144;6.244;2023-05-07T06:31:43;11.40;99.90
51733;DHT22;39139;53.144;6.244;2023-05-07T06:34:10;11.40;99.90
51733;DHT22;39139;53.144;6.244;2023-05-07T06:36:42;11.40;99.90
51733;DHT22;39139;53.144;6.244;2023-05-07T06:39:08;11.40;99.90
51733;DHT22;39139;53.144;6.244;2023-05-07T06:41:34;11.40;99.90
51733;DHT22;39139;53.144;6.244;2023-05-07T06:44:03;11.30;99.90
51733;DHT22;39139;53.144;6.244;2023-05-07T06:46:29;11.40;99.90
51733;DHT22;39139;53.144;6.244;2023-05-07T06:48:55;11.40;99.90
51733;DHT22;39139;53.144;6.244;2023-05-07T06:51:22;11.40;99.90
51733;DHT22;39139;53.144;6.244;2023-05-07T06:53:48;11.40;99.90
51733;DHT22;39139;53.144;6.244;2023-05-07T06:56:13;11.40;99.90
51733;DHT22;39139;53.144;6.244;2023-05-07T06:58:41;11.40;99.90
51733;DHT22;39139;53.144;6.244;2023-05-07T07:01:07;11.40;99.90
51733;DHT22;39139;53.144;6.244;2023-05-07T07:03:32;11.40;99.90
51733;DHT22;39139;53.144;6.244;2023-05-07T07:05:58;11.50;99.90
51733;DHT22;39139;53.144;6.244;2023-05-07T07:08:24;11.60;99.90
51733;DHT22;39139;53.144;6.244;2023-05-07T07:10:49;11.50;99.90
51733;DHT22;39139;53.144;6.244;2023-05-07T07:13:15;11.50;99.90
51733;DHT22;39139;53.144;6.244;2023-05-07T07:15:40;11.50;99.90
51733;DHT22;39139;53.144;6.244;2023-05-07T07:18:06;11.60;99.90
51733;DHT22;39139;53.144;6.244;2023-05-07T07:20:32;11.60;99.90
51733;DHT22;39139;53.144;6.244;2023-05-07T07:22:58;11.70;99.90
51733;DHT22;39139;53.144;6.244;2023-05-07T07:25:23;11.70;99.90
51733;DHT22;39139;53.144;6.244;2023-05-07T07:27:49;11.60;99.90
51733;DHT22;39139;53.144;6.244;2023-05-07T07:30:15;11.80;99.90
51733;DHT22;39139;53.144;6.244;2023-05-07T07:32:41;11.80;99.90
51733;DHT22;39139;53.144;6.244;2023-05-07T07:35:07;11.80;99.90
51733;DHT22;39139;53.144;6.244;2023-05-07T07:37:32;11.80;99.90
51733;DHT22;39139;53.144;6.244;2023-05-07T07:39:58;11.90;99.90
51733;DHT22;39139;53.144;6.244;2023-05-07T07:42:24;11.90;99.90
51733;DHT22;39139;53.144;6.244;2023-05-07T07:44:49;11.90;99.90
51733;DHT22;39139;53.144;6.244;2023-05-07T07:47:15;11.90;99.90
51733;DHT22;39139;53.144;6.244;2023-05-07T07:49:41;11.90;99.90
51733;DHT22;39139;53.144;6.244;2023-05-07T07:52:06;12.00;99.90
51733;DHT22;39139;53.144;6.244;2023-05-07T07:54:32;12.00;99.90
51733;DHT22;39139;53.144;6.244;2023-05-07T07:56:58;12.00;99.90
51733;DHT22;39139;53.144;6.244;2023-05-07T07:59:23;12.00;99.90
51733;DHT22;39139;53.144;6.244;2023-05-07T08:01:49;12.00;99.90
51733;DHT22;39139;53.144;6.244;2023-05-07T08:04:15;12.00;99.90
51733;DHT22;39139;53.144;6.244;2023-05-07T08:06:41;12.10;99.90
51733;DHT22;39139;53.144;6.244;2023-05-07T08:09:07;12.10;99.90
51733;DHT22;39139;53.144;6.244;2023-05-07T08:11:33;12.10;99.90
51733;DHT22;39139;53.144;6.244;2023-05-07T08:13:59;12.10;99.90
51733;DHT22;39139;53.144;6.244;2023-05-07T08:16:25;12.20;99.90
51733;DHT22;39139;53.144;6.244;2023-05-07T08:18:51;12.20;99.90
51733;DHT22;39139;53.144;6.244;2023-05-07T08:21:17;12.30;99.90
51733;DHT22;39139;53.144;6.244;2023-05-07T08:23:42;12.40;99.90
51733;DHT22;39139;53.144;6.244;2023-05-07T08:26:08;12.40;99.90
51733;DHT22;39139;53.144;6.244;2023-05-07T08:28:34;12.30;99.90
51733;DHT22;39139;53.144;6.244;2023-05-07T08:31:00;12.50;99.90
51733;DHT22;39139;53.144;6.244;2023-05-07T08:33:26;12.50;99.90
51733;DHT22;39139;53.144;6.244;2023-05-07T08:35:52;12.60;99.90
51733;DHT22;39139;53.144;6.244;2023-05-07T08:38:17;12.60;99.90
51733;DHT22;39139;53.144;6.244;2023-05-07T08:40:43;12.70;99.90
51733;DHT22;39139;53.144;6.244;2023-05-07T08:43:12;12.80;99.90
51733;DHT22;39139;53.144;6.244;2023-05-07T08:45:40;12.90;99.90
51733;DHT22;39139;53.144;6.244;2023-05-07T08:48:09;12.90;99.90
51733;DHT22;39139;53.144;6.244;2023-05-07T08:50:39;13.00;99.90
51733;DHT22;39139;53.144;6.244;2023-05-07T08:53:05;13.00;99.90
51733;DHT22;39139;53.144;6.244;2023-05-07T08:55:31;13.00;99.90
51733;DHT22;39139;53.144;6.244;2023-05-07T08:57:56;13.10;99.90
51733;DHT22;39139;53.144;6.244;2023-05-07T09:00:22;13.10;99.90
51733;DHT22;39139;53.144;6.244;2023-05-07T09:02:48;13.30;99.90
51733;DHT22;39139;53.144;6.244;2023-05-07T09:05:14;13.40;99.90
51733;DHT22;39139;53.144;6.244;2023-05-07T09:07:39;13.50;99.90
51733;DHT22;39139;53.144;6.244;2023-05-07T09:10:06;13.60;99.90
51733;DHT22;39139;53.144;6.244;2023-05-07T09:12:32;13.60;99.90
51733;DHT22;39139;53.144;6.244;2023-05-07T09:14:59;13.70;99.90
51733;DHT22;39139;53.144;6.244;2023-05-07T09:17:24;13.80;99.90
51733;DHT22;39139;53.144;6.244;2023-05-07T09:19:50;13.90;99.90
51733;DHT22;39139;53.144;6.244;2023-05-07T09:22:16;14.00;99.90
51733;DHT22;39139;53.144;6.244;2023-05-07T09:24:50;14.10;99.90
51733;DHT22;39139;53.144;6.244;2023-05-07T09:27:17;14.10;99.90
51733;DHT22;39139;53.144;6.244;2023-05-07T09:29:43;14.10;99.90
51733;DHT22;39139;53.144;6.244;2023-05-07T09:32:09;14.10;99.90
51733;DHT22;39139;53.144;6.244;2023-05-07T09:34:36;14.20;99.90
51733;DHT22;39139;53.144;6.244;2023-05-07T09:37:05;14.20;99.90
51733;DHT22;39139;53.144;6.244;2023-05-07T09:39:44;14.30;99.90
51733;DHT22;39139;53.144;6.244;2023-05-07T09:42:10;14.40;99.90
51733;DHT22;39139;53.144;6.244;2023-05-07T09:44:37;14.70;99.90
51733;DHT22;39139;53.144;6.244;2023-05-07T09:47:07;14.80;99.90
51733;DHT22;39139;53.144;6.244;2023-05-07T09:49:37;15.00;99.90
51733;DHT22;39139;53.144;6.244;2023-05-07T09:52:04;15.10;99.90
51733;DHT22;39139;53.144;6.244;2023-05-07T09:54:37;15.10;99.90
51733;DHT22;39139;53.144;6.244;2023-05-07T09:57:06;15.10;99.90
51733;DHT22;39139;53.144;6.244;2023-05-07T09:59:33;15.10;99.90
51733;DHT22;39139;53.144;6.244;2023-05-07T10:02:01;15.30;99.90
51733;DHT22;39139;53.144;6.244;2023-05-07T10:04:27;15.50;99.90
51733;DHT22;39139;53.144;6.244;2023-05-07T10:06:53;15.60;99.90
51733;DHT22;39139;53.144;6.244;2023-05-07T10:09:21;15.70;99.90
51733;DHT22;39139;53.144;6.244;2023-05-07T10:11:49;15.80;99.90
51733;DHT22;39139;53.144;6.244;2023-05-07T10:14:15;15.80;99.90
51733;DHT22;39139;53.144;6.244;2023-05-07T10:16:41;15.80;99.90
51733;DHT22;39139;53.144;6.244;2023-05-07T10:19:08;15.80;99.90
51733;DHT22;39139;53.144;6.244;2023-05-07T10:21:36;15.80;99.90
51733;DHT22;39139;53.144;6.244;2023-05-07T10:24:10;15.90;99.90
51733;DHT22;39139;53.144;6.244;2023-05-07T10:26:42;16.20;99.90
51733;DHT22;39139;53.144;6.244;2023-05-07T10:29:24;16.50;99.90
51733;DHT22;39139;53.144;6.244;2023-05-07T10:34:39;16.80;99.90
51733;DHT22;39139;53.144;6.244;2023-05-07T10:37:06;16.80;99.90
51733;DHT22;39139;53.144;6.244;2023-05-07T10:39:32;16.80;99.90
51733;DHT22;39139;53.144;6.244;2023-05-07T10:42:11;16.90;99.90
51733;DHT22;39139;53.144;6.244;2023-05-07T10:44:37;17.10;99.90
51733;DHT22;39139;53.144;6.244;2023-05-07T10:47:09;17.20;99.90
51733;DHT22;39139;53.144;6.244;2023-05-07T10:52:17;17.30;99.90
51733;DHT22;39139;53.144;6.244;2023-05-07T10:54:44;17.40;99.90
51733;DHT22;39139;53.144;6.244;2023-05-07T10:57:32;17.60;99.90
51733;DHT22;39139;53.144;6.244;2023-05-07T10:59:58;17.70;99.90
51733;DHT22;39139;53.144;6.244;2023-05-07T11:05:25;17.90;99.90
51733;DHT22;39139;53.144;6.244;2023-05-07T11:07:54;18.10;99.90
51733;DHT22;39139;53.144;6.244;2023-05-07T11:10:21;18.20;99.90
51733;DHT22;39139;53.144;6.244;2023-05-07T11:12:51;18.30;99.90
51733;DHT22;39139;53.144;6.244;2023-05-07T11:15:37;18.30;99.90
51733;DHT22;39139;53.144;6.244;2023-05-07T11:18:03;18.40;99.90
51733;DHT22;39139;53.144;6.244;2023-05-07T11:20:56;18.70;99.90
51733;DHT22;39139;53.144;6.244;2023-05-07T11:26:04;18.80;99.90
51733;DHT22;39139;53.144;6.244;2023-05-07T11:28:31;18.90;99.90
51733;DHT22;39139;53.144;6.244;2023-05-07T11:30:57;19.00;99.90
51733;DHT22;39139;53.144;6.244;2023-05-07T11:33:23;18.90;99.90
51733;DHT22;39139;53.144;6.244;2023-05-07T11:35:56;19.00;99.90
51733;DHT22;39139;53.144;6.244;2023-05-07T11:38:22;18.80;99.90
51733;DHT22;39139;53.144;6.244;2023-05-07T11:40:55;18.90;99.90
51733;DHT22;39139;53.144;6.244;2023-05-07T11:43:21;19.20;99.90
51733;DHT22;39139;53.144;6.244;2023-05-07T11:45:48;19.40;99.90
51733;DHT22;39139;53.144;6.244;2023-05-07T11:48:15;19.40;99.90
51733;DHT22;39139;53.144;6.244;2023-05-07T11:50:59;19.40;99.90
51733;DHT22;39139;53.144;6.244;2023-05-07T11:53:26;19.30;99.90
51733;DHT22;39139;53.144;6.244;2023-05-07T11:55:53;19.40;99.90
51733;DHT22;39139;53.144;6.244;2023-05-07T11:58:25;19.40;99.90
51733;DHT22;39139;53.144;6.244;2023-05-07T12:00:53;19.40;99.90
51733;DHT22;39139;53.144;6.244;2023-05-07T12:03:20;19.30;99.90
51733;DHT22;39139;53.144;6.244;2023-05-07T12:05:47;19.20;99.90
51733;DHT22;39139;53.144;6.244;2023-05-07T12:08:17;19.10;99.90
51733;DHT22;39139;53.144;6.244;2023-05-07T12:10:43;19.00;99.90
51733;DHT22;39139;53.144;6.244;2023-05-07T12:15:42;19.00;99.90
51733;DHT22;39139;53.144;6.244;2023-05-07T12:18:08;18.90;99.90
51733;DHT22;39139;53.144;6.244;2023-05-07T12:20:36;18.90;99.90
51733;DHT22;39139;53.144;6.244;2023-05-07T12:23:02;18.70;99.90
51733;DHT22;39139;53.144;6.244;2023-05-07T12:25:36;18.60;99.90
51733;DHT22;39139;53.144;6.244;2023-05-07T12:28:03;18.70;99.90
51733;DHT22;39139;53.144;6.244;2023-05-07T12:30:32;18.70;99.90
51733;DHT22;39139;53.144;6.244;2023-05-07T12:32:58;18.90;99.90
51733;DHT22;39139;53.144;6.244;2023-05-07T12:35:30;19.10;99.90
51733;DHT22;39139;53.144;6.244;2023-05-07T12:37:57;19.30;99.90
51733;DHT22;39139;53.144;6.244;2023-05-07T12:40:46;19.40;99.90
51733;DHT22;39139;53.144;6.244;2023-05-07T12:43:24;19.50;99.90
51733;DHT22;39139;53.144;6.244;2023-05-07T12:45:50;19.80;99.90
51733;DHT22;39139;53.144;6.244;2023-05-07T12:48:17;19.90;99.90
51733;DHT22;39139;53.144;6.244;2023-05-07T12:50:44;19.90;99.90
51733;DHT22;39139;53.144;6.244;2023-05-07T12:53:11;20.00;99.90
51733;DHT22;39139;53.144;6.244;2023-05-07T12:55:45;20.10;99.90
51733;DHT22;39139;53.144;6.244;2023-05-07T13:00:49;20.30;99.90
51733;DHT22;39139;53.144;6.244;2023-05-07T13:05:52;20.20;99.90
51733;DHT22;39139;53.144;6.244;2023-05-07T13:08:47;20.20;99.90
51733;DHT22;39139;53.144;6.244;2023-05-07T13:11:13;20.20;99.90
51733;DHT22;39139;53.144;6.244;2023-05-07T13:13:40;20.20;99.90
51733;DHT22;39139;53.144;6.244;2023-05-07T13:16:09;20.30;99.90
51733;DHT22;39139;53.144;6.244;2023-05-07T13:18:37;20.30;99.90
51733;DHT22;39139;53.144;6.244;2023-05-07T13:21:03;20.40;99.90
51733;DHT22;39139;53.144;6.244;2023-05-07T13:23:29;20.40;99.90
51733;DHT22;39139;53.144;6.244;2023-05-07T13:25:55;20.40;99.90
51733;DHT22;39139;53.144;6.244;2023-05-07T13:28:24;20.40;99.90
51733;DHT22;39139;53.144;6.244;2023-05-07T13:30:49;20.50;99.90
51733;DHT22;39139;53.144;6.244;2023-05-07T13:33:17;20.40;99.90
51733;DHT22;39139;53.144;6.244;2023-05-07T13:35:43;20.40;99.90
51733;DHT22;39139;53.144;6.244;2023-05-07T13:38:08;20.40;99.90
51733;DHT22;39139;53.144;6.244;2023-05-07T13:40:34;20.30;99.90
51733;DHT22;39139;53.144;6.244;2023-05-07T13:43:00;20.20;99.90
51733;DHT22;39139;53.144;6.244;2023-05-07T13:45:30;20.20;99.90
51733;DHT22;39139;53.144;6.244;2023-05-07T13:47:56;20.10;99.90
51733;DHT22;39139;53.144;6.244;2023-05-07T13:50:22;20.20;99.90
51733;DHT22;39139;53.144;6.244;2023-05-07T13:52:47;20.20;99.90
51733;DHT22;39139;53.144;6.244;2023-05-07T13:55:20;20.20;99.90
51733;DHT22;39139;53.144;6.244;2023-05-07T13:57:46;20.20;99.90
51733;DHT22;39139;53.144;6.244;2023-05-07T14:00:13;20.30;99.90
51733;DHT22;39139;53.144;6.244;2023-05-07T14:02:39;20.30;99.90
51733;DHT22;39139;53.144;6.244;2023-05-07T14:05:06;20.30;99.90
51733;DHT22;39139;53.144;6.244;2023-05-07T14:07:33;20.30;99.90
51733;DHT22;39139;53.144;6.244;2023-05-07T14:09:59;20.20;99.90
51733;DHT22;39139;53.144;6.244;2023-05-07T14:12:25;20.20;99.90
51733;DHT22;39139;53.144;6.244;2023-05-07T14:14:50;20.10;99.90
51733;DHT22;39139;53.144;6.244;2023-05-07T14:17:19;20.30;99.90
51733;DHT22;39139;53.144;6.244;2023-05-07T14:19:45;20.30;99.90
51733;DHT22;39139;53.144;6.244;2023-05-07T14:22:12;20.10;99.90
51733;DHT22;39139;53.144;6.244;2023-05-07T14:24:38;20.10;99.90
51733;DHT22;39139;53.144;6.244;2023-05-07T14:27:05;20.00;99.90
51733;DHT22;39139;53.144;6.244;2023-05-07T14:29:31;19.90;99.90
51733;DHT22;39139;53.144;6.244;2023-05-07T14:31:56;19.90;99.90
51733;DHT22;39139;53.144;6.244;2023-05-07T14:34:22;19.90;99.90
51733;DHT22;39139;53.144;6.244;2023-05-07T14:36:47;19.90;99.90
51733;DHT22;39139;53.144;6.244;2023-05-07T14:39:13;20.00;99.90
51733;DHT22;39139;53.144;6.244;2023-05-07T14:41:39;20.20;99.90
51733;DHT22;39139;53.144;6.244;2023-05-07T14:44:04;20.20;99.90
51733;DHT22;39139;53.144;6.244;2023-05-07T14:46:30;20.20;99.90
51733;DHT22;39139;53.144;6.244;2023-05-07T14:48:57;20.30;99.90
51733;DHT22;39139;53.144;6.244;2023-05-07T14:51:22;20.30;99.90
51733;DHT22;39139;53.144;6.244;2023-05-07T14:53:50;20.30;99.90
51733;DHT22;39139;53.144;6.244;2023-05-07T14:56:16;20.30;99.90
51733;DHT22;39139;53.144;6.244;2023-05-07T14:58:42;20.30;99.90
51733;DHT22;39139;53.144;6.244;2023-05-07T15:01:08;20.20;99.90
51733;DHT22;39139;53.144;6.244;2023-05-07T15:03:34;20.10;99.90
51733;DHT22;39139;53.144;6.244;2023-05-07T15:06:00;20.00;99.90
51733;DHT22;39139;53.144;6.244;2023-05-07T15:08:25;19.90;99.90
51733;DHT22;39139;53.144;6.244;2023-05-07T15:10:51;19.90;99.90
51733;DHT22;39139;53.144;6.244;2023-05-07T15:13:17;19.90;99.90
51733;DHT22;39139;53.144;6.244;2023-05-07T15:15:45;20.00;99.90
51733;DHT22;39139;53.144;6.244;2023-05-07T15:18:11;20.00;99.90
51733;DHT22;39139;53.144;6.244;2023-05-07T15:20:37;20.00;99.90
51733;DHT22;39139;53.144;6.244;2023-05-07T15:23:03;20.00;99.90
51733;DHT22;39139;53.144;6.244;2023-05-07T15:25:31;20.10;99.90
51733;DHT22;39139;53.144;6.244;2023-05-07T15:27:58;20.10;99.90
51733;DHT22;39139;53.144;6.244;2023-05-07T15:30:23;20.10;99.90
51733;DHT22;39139;53.144;6.244;2023-05-07T15:32:49;20.00;99.90
51733;DHT22;39139;53.144;6.244;2023-05-07T15:35:16;19.90;99.90
51733;DHT22;39139;53.144;6.244;2023-05-07T15:37:42;19.80;99.90
51733;DHT22;39139;53.144;6.244;2023-05-07T15:40:09;19.70;99.90
51733;DHT22;39139;53.144;6.244;2023-05-07T15:42:35;19.60;99.90
51733;DHT22;39139;53.144;6.244;2023-05-07T15:45:01;19.50;99.90
51733;DHT22;39139;53.144;6.244;2023-05-07T15:47:27;19.50;99.90